createdAt,value
2023-04-17T00:00:43.785Z,71.62
2023-04-17T00:01:47.679Z,71.65
2023-04-17T00:02:51.365Z,71.65
2023-04-17T00:03:56.416Z,71.66
2023-04-17T00:05:05.672Z,71.68
2023-04-17T00:06:10.403Z,71.65
2023-04-17T00:07:15.233Z,71.60
2023-04-17T00:08:17.456Z,71.56
2023-04-17T00:09:22.483Z,71.62
2023-04-17T00:10:24.838Z,71.64
2023-04-17T00:11:30.348Z,71.62
2023-04-17T00:12:33.220Z,71.64
2023-04-17T00:13:40.302Z,71.64
2023-04-17T00:14:44.454Z,71.68
2023-04-17T00:15:47.489Z,71.65
2023-04-17T00:16:51.169Z,71.69
2023-04-17T00:17:57.372Z,71.62
2023-04-17T00:19:04.285Z,71.67
2023-04-17T00:20:12.884Z,71.70
2023-04-17T00:21:15.076Z,71.67
2023-04-17T00:22:18.804Z,71.73
2023-04-17T00:23:22.313Z,71.69
2023-04-17T00:24:30.739Z,71.66
2023-04-17T00:25:32.974Z,71.65
2023-04-17T00:27:50.305Z,71.71
2023-04-17T00:28:54.092Z,71.81
2023-04-17T00:30:00.597Z,71.82
2023-04-17T00:31:03.249Z,71.79
2023-04-17T00:32:08.490Z,71.78
2023-04-17T00:33:13.194Z,71.78
2023-04-17T00:34:18.189Z,71.78
2023-04-17T00:35:28.376Z,71.78
2023-04-17T00:36:31.960Z,71.77
2023-04-17T00:37:34.558Z,71.73
2023-04-17T00:38:36.734Z,71.69
2023-04-17T00:39:41.560Z,71.66
2023-04-17T00:40:46.176Z,71.66
2023-04-17T00:41:51.464Z,71.61
2023-04-17T00:43:04.405Z,71.64
2023-04-17T00:44:08.867Z,71.64
2023-04-17T00:45:13.327Z,71.61
2023-04-17T00:46:16.788Z,71.61
2023-04-17T00:47:24.072Z,71.61
2023-04-17T00:48:26.489Z,71.56
2023-04-17T00:49:31.579Z,71.64
2023-04-17T00:50:35.841Z,71.61
2023-04-17T00:51:40.050Z,71.62
2023-04-17T00:52:47.191Z,71.63
2023-04-17T00:53:49.611Z,71.61
2023-04-17T00:54:58.251Z,71.62
2023-04-17T00:57:27.285Z,71.58
2023-04-17T00:58:35.661Z,71.65
2023-04-17T00:59:39.191Z,71.64
2023-04-17T01:00:46.998Z,71.61
2023-04-17T01:01:50.121Z,71.59
2023-04-17T01:04:21.599Z,71.63
2023-04-17T01:05:27.189Z,71.72
2023-04-17T01:06:31.557Z,71.75
2023-04-17T01:07:34.112Z,71.76
2023-04-17T01:08:42.008Z,71.72
2023-04-17T01:09:51.073Z,71.67
2023-04-17T01:10:54.312Z,71.64
2023-04-17T01:12:16.985Z,71.64
2023-04-17T01:13:19.210Z,71.59
2023-04-17T01:14:21.511Z,71.52
2023-04-17T01:15:23.828Z,71.55
2023-04-17T01:16:27.348Z,71.57
2023-04-17T01:17:30.112Z,71.59
2023-04-17T01:18:33.876Z,71.63
2023-04-17T01:19:37.473Z,71.66
2023-04-17T01:20:39.774Z,71.67
2023-04-17T01:21:42.351Z,71.70
2023-04-17T01:22:49.818Z,71.76
2023-04-17T01:23:51.993Z,71.79
2023-04-17T01:24:55.467Z,71.74
2023-04-17T01:25:59.487Z,71.77
2023-04-17T01:27:02.960Z,71.78
2023-04-17T01:28:05.686Z,71.76
2023-04-17T01:29:07.980Z,71.82
2023-04-17T01:30:12.718Z,71.79
2023-04-17T01:31:20.484Z,71.82
2023-04-17T01:32:23.348Z,71.85
2023-04-17T01:33:25.494Z,71.86
2023-04-17T01:34:27.784Z,71.84
2023-04-17T01:35:30.439Z,71.80
2023-04-17T01:36:33.414Z,71.83
2023-04-17T01:37:35.695Z,71.79
2023-04-17T01:38:38.783Z,71.77
2023-04-17T01:39:40.914Z,71.76
2023-04-17T01:40:43.712Z,71.81
2023-04-17T01:41:46.414Z,71.76
2023-04-17T01:42:48.612Z,71.79
2023-04-17T01:43:50.803Z,71.72
2023-04-17T01:44:53.597Z,71.77
2023-04-17T01:45:56.308Z,71.78
2023-04-17T01:47:12.560Z,71.76
2023-04-17T01:48:14.894Z,71.76
2023-04-17T01:49:17.529Z,71.76
2023-04-17T01:50:19.744Z,71.76
2023-04-17T01:51:22.685Z,71.78
2023-04-17T01:52:24.891Z,71.75
2023-04-17T01:53:30.945Z,71.76
2023-04-17T01:54:33.896Z,71.75
2023-04-17T01:55:35.995Z,71.75
2023-04-17T01:56:38.991Z,71.74
2023-04-17T01:57:41.234Z,71.76
2023-04-17T01:58:44.024Z,71.72
2023-04-17T01:59:46.260Z,71.74
2023-04-17T02:00:49.617Z,71.71
2023-04-17T02:01:52.751Z,71.78
2023-04-17T02:02:55.247Z,71.78
2023-04-17T02:03:58.652Z,71.72
2023-04-17T02:05:01.526Z,71.71
2023-04-17T02:06:04.087Z,71.67
2023-04-17T02:07:06.195Z,71.58
2023-04-17T02:08:08.372Z,71.62
2023-04-17T02:09:10.740Z,71.65
2023-04-17T02:10:15.725Z,71.68
2023-04-17T02:11:18.086Z,71.63
2023-04-17T02:12:20.211Z,71.60
2023-04-17T02:13:22.872Z,71.57
2023-04-17T02:14:25.452Z,71.56
2023-04-17T02:15:27.724Z,71.57
2023-04-17T02:16:30.071Z,71.47
2023-04-17T02:17:32.939Z,71.44
2023-04-17T02:18:35.170Z,71.39
2023-04-17T02:19:37.303Z,71.40
2023-04-17T02:20:39.576Z,71.34
2023-04-17T02:21:41.633Z,71.24
2023-04-17T02:22:43.728Z,71.20
2023-04-17T02:23:45.989Z,71.17
2023-04-17T02:24:48.071Z,71.20
2023-04-17T02:25:52.002Z,71.13
2023-04-17T02:26:54.418Z,72.17
2023-04-17T02:27:56.827Z,73.63
2023-04-17T02:28:58.826Z,74.22
2023-04-17T02:30:00.933Z,74.57
2023-04-17T02:31:08.012Z,74.78
2023-04-17T02:32:10.288Z,74.67
2023-04-17T02:33:13.405Z,74.45
2023-04-17T02:34:16.401Z,74.10
2023-04-17T02:35:20.736Z,73.66
2023-04-17T02:36:23.073Z,73.32
2023-04-17T02:37:25.353Z,73.21
2023-04-17T02:38:28.509Z,73.24
2023-04-17T02:39:30.696Z,73.18
2023-04-17T02:40:33.084Z,72.97
2023-04-17T02:41:37.006Z,72.72
2023-04-17T02:42:40.711Z,72.49
2023-04-17T02:43:42.940Z,72.28
2023-04-17T02:44:45.833Z,72.21
2023-04-17T02:45:48.031Z,72.26
2023-04-17T02:46:50.805Z,72.19
2023-04-17T02:47:53.078Z,72.19
2023-04-17T02:48:55.238Z,72.23
2023-04-17T02:49:57.648Z,72.04
2023-04-17T02:50:59.946Z,71.86
2023-04-17T02:52:03.585Z,71.53
2023-04-17T02:53:06.211Z,71.09
2023-04-17T02:54:08.577Z,70.81
2023-04-17T02:55:10.879Z,70.64
2023-04-17T02:56:14.393Z,70.49
2023-04-17T02:57:16.848Z,70.32
2023-04-17T02:58:19.044Z,70.10
2023-04-17T02:59:21.426Z,69.97
2023-04-17T03:01:35.150Z,69.83
2023-04-17T03:02:37.431Z,70.00
2023-04-17T03:03:40.385Z,70.02
2023-04-17T03:04:44.937Z,70.05
2023-04-17T03:05:47.194Z,70.08
2023-04-17T03:06:49.984Z,69.99
2023-04-17T03:07:52.623Z,69.92
2023-04-17T03:08:54.885Z,69.94
2023-04-17T03:09:57.776Z,69.94
2023-04-17T03:11:00.857Z,70.17
2023-04-17T03:12:03.791Z,70.63
2023-04-17T03:13:06.656Z,70.78
2023-04-17T03:14:08.930Z,70.72
2023-04-17T03:15:11.126Z,70.55
2023-04-17T03:16:13.862Z,70.44
2023-04-17T03:17:17.125Z,70.29
2023-04-17T03:18:20.056Z,70.15
2023-04-17T03:19:22.655Z,70.00
2023-04-17T03:20:26.112Z,69.88
2023-04-17T03:21:28.524Z,69.89
2023-04-17T03:22:30.726Z,69.93
2023-04-17T03:23:32.999Z,69.75
2023-04-17T03:24:35.071Z,69.67
2023-04-17T03:25:37.827Z,69.67
2023-04-17T03:26:40.061Z,69.71
2023-04-17T03:27:44.270Z,69.73
2023-04-17T03:28:47.814Z,69.73
2023-04-17T03:29:50.879Z,69.76
2023-04-17T03:30:54.239Z,69.75
2023-04-17T03:31:56.525Z,69.67
2023-04-17T03:32:59.396Z,69.63
2023-04-17T03:34:03.652Z,69.63
2023-04-17T03:35:06.171Z,69.55
2023-04-17T03:36:09.413Z,69.54
2023-04-17T03:37:11.691Z,69.56
2023-04-17T03:38:13.746Z,69.52
2023-04-17T03:39:16.020Z,69.54
2023-04-17T03:40:18.201Z,69.47
2023-04-17T03:41:20.580Z,69.48
2023-04-17T03:42:26.785Z,69.46
2023-04-17T03:43:29.165Z,69.43
2023-04-17T03:44:31.478Z,69.53
2023-04-17T03:45:33.932Z,69.52
2023-04-17T03:46:38.010Z,69.50
2023-04-17T03:47:41.714Z,69.42
2023-04-17T03:48:44.635Z,69.51
2023-04-17T03:49:47.403Z,69.45
2023-04-17T03:50:50.837Z,69.54
2023-04-17T03:51:53.706Z,69.57
2023-04-17T03:52:56.077Z,69.54
2023-04-17T03:54:00.469Z,69.39
2023-04-17T03:55:02.973Z,69.41
2023-04-17T03:56:05.862Z,69.38
2023-04-17T03:57:09.871Z,69.22
2023-04-17T03:58:12.350Z,69.18
2023-04-17T03:59:14.535Z,69.18
2023-04-17T04:00:18.474Z,69.18
2023-04-17T04:01:21.375Z,69.18
2023-04-17T04:02:29.783Z,69.05
2023-04-17T04:03:32.684Z,68.79
2023-04-17T04:04:36.118Z,68.77
2023-04-17T04:05:40.549Z,68.70
2023-04-17T04:06:45.768Z,68.75
2023-04-17T04:07:49.770Z,68.70
2023-04-17T04:08:53.764Z,68.68
2023-04-17T04:09:56.797Z,68.72
2023-04-17T04:10:59.620Z,68.67
2023-04-17T04:12:03.954Z,68.58
2023-04-17T04:13:08.042Z,68.37
2023-04-17T04:14:10.122Z,68.33
2023-04-17T04:15:13.050Z,68.34
2023-04-17T04:16:16.390Z,68.22
2023-04-17T04:17:19.271Z,68.37
2023-04-17T04:18:21.926Z,68.18
2023-04-17T04:19:24.199Z,68.05
2023-04-17T04:20:27.540Z,67.96
2023-04-17T04:21:31.543Z,67.80
2023-04-17T04:22:34.248Z,67.76
2023-04-17T04:23:37.654Z,67.64
2023-04-17T04:24:40.770Z,67.62
2023-04-17T04:25:43.746Z,67.51
2023-04-17T04:27:02.675Z,67.43
2023-04-17T04:28:04.878Z,67.45
2023-04-17T04:29:07.765Z,67.34
2023-04-17T04:30:19.248Z,67.40
2023-04-17T04:31:21.822Z,67.11
2023-04-17T04:32:24.611Z,67.07
2023-04-17T04:33:27.201Z,67.08
2023-04-17T04:34:29.402Z,66.93
2023-04-17T04:35:32.592Z,66.81
2023-04-17T04:36:35.312Z,66.76
2023-04-17T04:37:51.412Z,66.59
2023-04-17T04:38:53.552Z,66.40
2023-04-17T04:39:58.222Z,66.20
2023-04-17T04:41:00.450Z,66.11
2023-04-17T04:42:03.190Z,66.01
2023-04-17T04:43:05.218Z,66.12
2023-04-17T04:44:09.568Z,65.91
2023-04-17T04:45:13.100Z,65.74
2023-04-17T04:46:15.956Z,65.58
2023-04-17T04:47:19.945Z,65.46
2023-04-17T04:48:22.591Z,65.17
2023-04-17T04:49:24.827Z,65.27
2023-04-17T04:50:28.241Z,65.20
2023-04-17T04:51:30.910Z,65.04
2023-04-17T04:52:33.757Z,64.78
2023-04-17T04:53:37.903Z,64.55
2023-04-17T04:54:54.112Z,64.40
2023-04-17T04:55:57.042Z,64.44
2023-04-17T04:56:59.973Z,64.22
2023-04-17T04:58:03.011Z,64.03
2023-04-17T04:59:05.288Z,63.88
2023-04-17T05:00:09.538Z,63.85
2023-04-17T05:01:13.703Z,64.07
2023-04-17T05:02:18.482Z,63.68
2023-04-17T05:03:21.626Z,63.43
2023-04-17T05:04:25.812Z,63.47
2023-04-17T05:05:29.911Z,63.57
2023-04-17T05:06:32.749Z,63.72
2023-04-17T05:07:36.744Z,63.65
2023-04-17T05:08:40.298Z,63.54
2023-04-17T05:09:44.357Z,63.63
2023-04-17T05:10:47.268Z,63.73
2023-04-17T05:11:50.467Z,63.34
2023-04-17T05:12:52.750Z,63.50
2023-04-17T05:13:54.915Z,63.47
2023-04-17T05:15:01.934Z,63.25
2023-04-17T05:16:06.070Z,63.12
2023-04-17T05:17:10.507Z,63.10
2023-04-17T05:18:13.752Z,62.96
2023-04-17T05:19:16.642Z,62.61
2023-04-17T05:20:21.542Z,62.68
2023-04-17T05:21:25.656Z,62.76
2023-04-17T05:22:27.909Z,62.73
2023-04-17T05:23:31.887Z,62.47
2023-04-17T05:24:34.569Z,62.33
2023-04-17T05:25:37.833Z,62.24
2023-04-17T05:26:41.522Z,62.44
2023-04-17T05:27:43.722Z,62.25
2023-04-17T05:28:47.052Z,61.99
2023-04-17T05:29:51.487Z,61.97
2023-04-17T05:30:55.856Z,61.84
2023-04-17T05:32:00.320Z,61.76
2023-04-17T05:33:04.982Z,61.75
2023-04-17T05:34:11.532Z,61.98
2023-04-17T05:35:13.756Z,61.92
2023-04-17T05:36:16.761Z,61.79
2023-04-17T05:37:18.844Z,61.54
2023-04-17T05:38:20.997Z,61.73
2023-04-17T05:39:23.288Z,61.56
2023-04-17T05:40:26.018Z,61.27
2023-04-17T05:41:29.088Z,61.24
2023-04-17T05:42:31.677Z,61.22
2023-04-17T05:43:34.402Z,61.38
2023-04-17T05:44:36.525Z,61.14
2023-04-17T05:45:39.414Z,60.93
2023-04-17T05:46:43.580Z,60.69
2023-04-17T05:47:47.192Z,60.70
2023-04-17T05:48:50.460Z,60.82
2023-04-17T05:49:53.520Z,60.77
2023-04-17T05:50:55.812Z,60.85
2023-04-17T05:51:58.609Z,60.60
2023-04-17T05:53:01.085Z,60.58
2023-04-17T05:54:05.795Z,60.65
2023-04-17T05:55:08.852Z,60.52
2023-04-17T05:56:11.235Z,60.61
2023-04-17T05:57:13.552Z,60.71
2023-04-17T05:58:23.737Z,60.52
2023-04-17T05:59:20.419Z,60.60
2023-04-17T06:00:22.880Z,60.18
2023-04-17T06:01:26.956Z,60.32
2023-04-17T06:02:29.966Z,60.23
2023-04-17T06:03:34.118Z,60.23
2023-04-17T06:04:45.340Z,60.26
2023-04-17T06:05:47.936Z,60.25
2023-04-17T06:06:50.826Z,60.31
2023-04-17T06:07:53.856Z,60.39
2023-04-17T06:08:56.490Z,60.61
2023-04-17T06:09:58.587Z,60.48
2023-04-17T06:11:01.378Z,60.83
2023-04-17T06:12:05.572Z,61.03
2023-04-17T06:13:08.073Z,61.20
2023-04-17T06:14:11.480Z,61.12
2023-04-17T06:15:14.393Z,61.27
2023-04-17T06:16:17.192Z,61.18
2023-04-17T06:17:21.403Z,61.10
2023-04-17T06:18:23.747Z,61.18
2023-04-17T06:19:26.435Z,61.34
2023-04-17T06:20:28.700Z,61.41
2023-04-17T06:21:31.560Z,61.37
2023-04-17T06:22:36.873Z,61.62
2023-04-17T06:23:39.168Z,61.71
2023-04-17T06:24:41.366Z,61.77
2023-04-17T06:25:44.140Z,61.67
2023-04-17T06:26:46.392Z,61.37
2023-04-17T06:27:49.110Z,61.40
2023-04-17T06:28:51.792Z,61.15
2023-04-17T06:29:54.116Z,60.66
2023-04-17T06:30:56.590Z,60.45
2023-04-17T06:31:59.232Z,60.20
2023-04-17T06:33:02.024Z,60.33
2023-04-17T06:34:06.566Z,60.31
2023-04-17T06:35:10.788Z,60.20
2023-04-17T06:36:15.284Z,60.15
2023-04-17T06:37:22.585Z,60.10
2023-04-17T06:38:24.995Z,60.13
2023-04-17T06:39:27.316Z,60.27
2023-04-17T06:40:30.161Z,60.33
2023-04-17T06:41:32.695Z,60.27
2023-04-17T06:42:35.847Z,60.20
2023-04-17T06:43:38.767Z,60.18
2023-04-17T06:44:42.800Z,60.30
2023-04-17T06:45:47.984Z,59.84
2023-04-17T06:46:53.015Z,59.76
2023-04-17T06:47:55.414Z,59.67
2023-04-17T06:48:58.358Z,59.79
2023-04-17T06:50:00.598Z,59.20
2023-04-17T06:51:02.939Z,58.73
2023-04-17T06:52:05.123Z,58.15
2023-04-17T06:53:07.712Z,58.33
2023-04-17T06:54:10.395Z,58.28
2023-04-17T06:55:13.830Z,57.36
2023-04-17T06:56:16.159Z,57.17
2023-04-17T06:57:18.374Z,57.03
2023-04-17T06:58:20.564Z,57.12
2023-04-17T06:59:23.327Z,56.80
2023-04-17T07:00:26.382Z,56.95
2023-04-17T07:01:29.731Z,57.35
2023-04-17T07:02:32.869Z,57.23
2023-04-17T07:03:36.751Z,57.47
2023-04-17T07:04:39.932Z,57.69
2023-04-17T07:05:43.810Z,57.70
2023-04-17T07:06:47.024Z,57.58
2023-04-17T07:07:49.271Z,57.40
2023-04-17T07:08:53.475Z,57.48
2023-04-17T07:09:56.375Z,57.55
2023-04-17T07:10:59.609Z,57.73
2023-04-17T07:12:02.503Z,57.74
2023-04-17T07:13:04.644Z,57.36
2023-04-17T07:14:07.150Z,57.34
2023-04-17T07:15:09.863Z,57.10
2023-04-17T07:16:12.579Z,57.06
2023-04-17T07:17:14.720Z,56.75
2023-04-17T07:18:16.884Z,56.87
2023-04-17T07:19:19.822Z,56.61
2023-04-17T07:20:22.192Z,56.75
2023-04-17T07:21:24.251Z,56.26
2023-04-17T07:22:27.398Z,56.34
2023-04-17T07:23:29.883Z,56.47
2023-04-17T07:24:32.510Z,56.42
2023-04-17T07:25:35.167Z,56.64
2023-04-17T07:26:38.117Z,56.62
2023-04-17T07:27:40.560Z,56.31
2023-04-17T07:28:42.686Z,56.42
2023-04-17T07:29:44.859Z,56.14
2023-04-17T07:30:47.039Z,56.42
2023-04-17T07:31:49.099Z,56.46
2023-04-17T07:32:51.669Z,56.10
2023-04-17T07:33:54.606Z,56.02
2023-04-17T07:34:57.247Z,56.11
2023-04-17T07:35:59.518Z,56.39
2023-04-17T07:37:01.628Z,56.35
2023-04-17T07:38:04.226Z,56.50
2023-04-17T07:39:06.453Z,56.63
2023-04-17T07:40:10.038Z,56.68
2023-04-17T07:41:12.674Z,56.72
2023-04-17T07:42:15.476Z,56.42
2023-04-17T07:43:18.087Z,56.34
2023-04-17T07:44:20.052Z,56.19
2023-04-17T07:45:22.771Z,56.04
2023-04-17T07:46:25.557Z,56.11
2023-04-17T07:47:28.458Z,55.87
2023-04-17T07:48:31.080Z,55.90
2023-04-17T07:49:33.274Z,55.55
2023-04-17T07:50:36.266Z,55.43
2023-04-17T07:51:38.423Z,55.75
2023-04-17T07:52:40.555Z,55.78
2023-04-17T07:53:42.643Z,55.82
2023-04-17T07:54:44.735Z,55.89
2023-04-17T07:55:48.735Z,55.91
2023-04-17T07:56:50.965Z,56.18
2023-04-17T07:57:53.598Z,56.37
2023-04-17T07:58:55.712Z,56.70
2023-04-17T07:59:58.014Z,56.52
2023-04-17T08:01:00.231Z,56.38
2023-04-17T08:02:03.387Z,56.60
2023-04-17T08:03:05.669Z,56.72
2023-04-17T08:04:10.199Z,57.11
2023-04-17T08:05:12.807Z,56.99
2023-04-17T08:06:15.484Z,57.17
2023-04-17T08:07:18.061Z,57.30
2023-04-17T08:08:24.102Z,57.30
2023-04-17T08:09:26.338Z,57.39
2023-04-17T08:10:28.548Z,57.46
2023-04-17T08:11:30.845Z,57.33
2023-04-17T08:12:33.412Z,57.48
2023-04-17T08:13:35.462Z,57.46
2023-04-17T08:14:38.118Z,57.34
2023-04-17T08:15:42.570Z,57.05
2023-04-17T08:16:51.876Z,56.74
2023-04-17T08:17:54.117Z,56.78
2023-04-17T08:18:56.172Z,56.51
2023-04-17T08:19:58.727Z,55.81
2023-04-17T08:21:00.781Z,55.71
2023-04-17T08:22:04.176Z,55.78
2023-04-17T08:23:07.268Z,56.28
2023-04-17T08:24:09.324Z,55.92
2023-04-17T08:25:13.833Z,55.41
2023-04-17T08:26:16.604Z,55.23
2023-04-17T08:27:18.787Z,54.58
2023-04-17T08:28:20.953Z,54.66
2023-04-17T08:29:25.825Z,55.12
2023-04-17T08:30:30.499Z,55.57
2023-04-17T08:31:32.781Z,55.34
2023-04-17T08:32:42.839Z,55.27
2023-04-17T08:33:45.324Z,55.16
2023-04-17T08:34:48.424Z,55.12
2023-04-17T08:35:55.577Z,55.19
2023-04-17T08:37:01.515Z,54.80
2023-04-17T08:38:03.647Z,54.89
2023-04-17T08:39:11.603Z,55.66
2023-04-17T08:40:14.844Z,55.99
2023-04-17T08:41:21.473Z,56.04
2023-04-17T08:42:25.003Z,55.93
2023-04-17T08:43:29.629Z,55.42
2023-04-17T08:44:32.105Z,55.24
2023-04-17T08:46:58.676Z,54.06
2023-04-17T08:48:04.110Z,54.48
2023-04-17T08:49:07.823Z,54.76
2023-04-17T08:50:19.266Z,54.54
2023-04-17T08:51:27.255Z,54.61
2023-04-17T08:52:31.301Z,54.05
2023-04-17T08:53:33.425Z,54.46
2023-04-17T08:54:36.082Z,54.92
2023-04-17T08:55:40.234Z,54.76
2023-04-17T08:56:42.469Z,54.56
2023-04-17T08:58:02.690Z,55.01
2023-04-17T08:59:04.915Z,54.35
2023-04-17T09:00:14.360Z,54.16
2023-04-17T09:01:24.552Z,53.38
2023-04-17T09:02:28.830Z,52.47
2023-04-17T09:03:43.101Z,51.88
2023-04-17T09:04:46.673Z,52.46
2023-04-17T09:05:51.416Z,52.54
2023-04-17T09:08:11.977Z,53.22
2023-04-17T09:09:15.070Z,53.34
2023-04-17T09:10:17.658Z,53.31
2023-04-17T09:11:20.848Z,53.75
2023-04-17T09:12:24.920Z,53.25
2023-04-17T09:13:27.307Z,53.54
2023-04-17T09:14:30.197Z,53.50
2023-04-17T09:15:33.644Z,53.34
2023-04-17T09:16:39.702Z,53.82
2023-04-17T09:17:42.108Z,53.65
2023-04-17T09:18:44.478Z,53.67
2023-04-17T09:20:07.564Z,53.75
2023-04-17T09:21:10.125Z,53.73
2023-04-17T09:22:20.850Z,53.29
2023-04-17T09:23:25.123Z,53.35
2023-04-17T09:24:41.229Z,53.29
2023-04-17T09:25:43.589Z,53.16
2023-04-17T09:26:47.428Z,53.45
2023-04-17T09:27:52.824Z,53.30
2023-04-17T09:30:17.952Z,53.70
2023-04-17T09:31:28.135Z,54.22
2023-04-17T09:32:33.024Z,53.99
2023-04-17T09:33:35.803Z,53.83
2023-04-17T09:34:43.090Z,54.13
2023-04-17T09:35:45.847Z,54.32
2023-04-17T09:36:51.539Z,53.90
2023-04-17T09:37:56.365Z,53.73
2023-04-17T09:39:02.318Z,53.96
2023-04-17T09:40:11.859Z,54.32
2023-04-17T09:41:40.036Z,54.72
2023-04-17T09:43:03.021Z,53.87
2023-04-17T09:44:12.787Z,53.50
2023-04-17T09:45:21.749Z,53.19
2023-04-17T09:47:48.498Z,53.17
2023-04-17T09:48:53.104Z,52.55
2023-04-17T09:49:55.690Z,52.57
2023-04-17T09:51:00.503Z,52.93
2023-04-17T09:52:08.959Z,53.45
2023-04-17T09:53:14.682Z,53.50
2023-04-17T09:54:18.569Z,53.20
2023-04-17T09:55:23.957Z,52.92
2023-04-17T09:56:29.720Z,53.10
2023-04-17T09:57:34.573Z,52.99
2023-04-17T09:58:39.947Z,52.43
2023-04-17T09:59:43.961Z,52.37
2023-04-17T10:00:46.763Z,52.26
2023-04-17T10:01:50.634Z,51.38
2023-04-17T10:02:54.888Z,51.53
2023-04-17T10:04:01.041Z,50.74
2023-04-17T10:05:08.048Z,50.62
2023-04-17T10:06:14.509Z,50.73
2023-04-17T10:07:18.817Z,51.19
2023-04-17T10:08:26.656Z,51.05
2023-04-17T10:09:28.776Z,51.11
2023-04-17T10:10:32.852Z,51.04
2023-04-17T10:11:46.035Z,51.40
2023-04-17T10:12:50.806Z,51.65
2023-04-17T10:14:06.164Z,51.54
2023-04-17T10:15:18.626Z,51.39
2023-04-17T10:16:37.322Z,51.35
2023-04-17T10:17:42.592Z,51.73
2023-04-17T10:18:45.459Z,52.30
2023-04-17T10:19:48.730Z,52.25
2023-04-17T10:20:55.859Z,52.72
2023-04-17T10:22:21.764Z,53.09
2023-04-17T10:23:30.496Z,53.36
2023-04-17T10:24:34.864Z,53.11
2023-04-17T10:25:39.085Z,53.48
2023-04-17T10:26:43.415Z,53.64
2023-04-17T18:01:50.964Z,53.77
2023-04-17T18:02:53.327Z,53.91
2023-04-17T18:03:56.449Z,53.57
2023-04-17T18:05:00.045Z,53.81
2023-04-17T18:06:03.526Z,53.77
2023-04-17T18:07:06.960Z,53.50
2023-04-17T18:08:10.329Z,53.50
2023-04-17T18:09:12.436Z,53.65
2023-04-17T18:10:15.154Z,53.69
2023-04-17T18:11:17.504Z,53.59
2023-04-17T18:12:20.605Z,53.65
2023-04-17T18:13:23.332Z,53.70
2023-04-17T18:14:29.901Z,53.72
2023-04-17T18:15:32.695Z,53.98
2023-04-17T18:16:35.480Z,54.14
2023-04-17T18:17:37.449Z,54.29
2023-04-17T18:18:40.098Z,54.38
2023-04-17T18:19:43.465Z,54.36
2023-04-17T18:20:45.767Z,54.12
2023-04-17T18:21:50.219Z,54.35
2023-04-17T18:22:52.339Z,54.31
2023-04-17T18:23:55.614Z,54.54
2023-04-17T18:24:58.260Z,54.48
2023-04-17T18:26:01.366Z,54.36
2023-04-17T18:27:04.126Z,54.28
2023-04-17T18:28:07.433Z,54.51
2023-04-17T18:29:10.047Z,54.39
2023-04-17T18:30:14.096Z,54.39
2023-04-17T18:31:17.565Z,54.52
2023-04-17T18:32:22.291Z,54.53
2023-04-17T18:33:25.559Z,54.45
2023-04-17T18:34:27.589Z,54.53
2023-04-17T18:35:29.750Z,54.56
2023-04-17T18:36:32.193Z,54.66
2023-04-17T18:37:34.463Z,54.68
2023-04-17T18:40:09.185Z,54.54
2023-04-17T18:41:11.264Z,54.81
2023-04-17T18:42:14.461Z,54.77
2023-04-17T18:43:17.046Z,54.81
2023-04-17T18:44:19.864Z,54.71
2023-04-17T18:45:25.342Z,54.64
2023-04-17T18:46:27.598Z,54.74
2023-04-17T18:47:29.857Z,54.71
2023-04-17T18:48:32.998Z,54.95
2023-04-17T18:49:35.571Z,55.07
2023-04-17T18:50:37.763Z,55.22
2023-04-17T18:51:39.856Z,55.19
2023-04-17T18:52:46.270Z,54.99
2023-04-17T18:53:47.266Z,55.16
2023-04-17T18:54:50.089Z,55.16
2023-04-17T18:55:52.490Z,54.95
2023-04-17T18:56:54.673Z,55.12
2023-04-17T18:57:57.215Z,55.14
2023-04-17T18:58:59.274Z,55.21
2023-04-17T19:00:01.437Z,55.27
2023-04-17T19:01:05.359Z,55.11
2023-04-17T19:02:08.746Z,55.00
2023-04-17T19:03:10.987Z,55.08
2023-04-17T19:04:13.384Z,54.80
2023-04-17T19:05:17.928Z,54.95
2023-04-17T19:06:22.254Z,55.06
2023-04-17T19:07:25.618Z,55.33
2023-04-17T19:08:28.312Z,55.12
2023-04-17T19:09:31.007Z,55.08
2023-04-17T19:10:33.635Z,55.09
2023-04-17T19:11:37.146Z,55.25
2023-04-17T19:12:39.637Z,55.04
2023-04-17T19:13:41.975Z,54.96
2023-04-17T19:14:47.318Z,54.89
2023-04-17T19:15:49.552Z,55.13
2023-04-17T19:16:51.810Z,55.02
2023-04-17T19:17:54.524Z,55.28
2023-04-17T19:18:57.057Z,55.22
2023-04-17T19:20:01.214Z,55.19
2023-04-17T19:21:03.526Z,55.12
2023-04-17T19:22:05.800Z,55.10
2023-04-17T19:23:09.703Z,55.03
2023-04-17T19:24:12.996Z,55.06
2023-04-17T19:25:15.248Z,55.00
2023-04-17T19:26:19.835Z,55.03
2023-04-17T19:27:22.296Z,54.95
2023-04-17T19:28:24.988Z,54.86
2023-04-17T19:29:27.561Z,54.99
2023-04-17T19:30:29.755Z,55.00
2023-04-17T19:31:34.525Z,54.75
2023-04-17T19:32:38.588Z,54.88
2023-04-17T19:33:43.226Z,54.76
2023-04-17T19:35:54.681Z,55.01
2023-04-17T19:36:57.181Z,55.07
2023-04-17T19:37:59.855Z,55.21
2023-04-17T19:39:02.603Z,55.13
2023-04-17T19:40:21.558Z,55.02
2023-04-17T19:41:19.028Z,55.14
2023-04-17T19:42:22.397Z,55.10
2023-04-17T19:43:24.351Z,54.79
2023-04-17T19:44:29.859Z,54.93
2023-04-17T19:45:34.140Z,54.95
2023-04-17T19:46:40.730Z,54.72
2023-04-17T19:47:48.105Z,54.76
2023-04-17T19:48:50.459Z,54.91
2023-04-17T19:49:54.236Z,54.78
2023-04-17T19:50:56.896Z,54.91
2023-04-17T19:52:01.154Z,54.96
2023-04-17T19:53:05.993Z,54.79
2023-04-17T19:54:10.617Z,54.86
2023-04-17T19:55:14.466Z,54.80
2023-04-17T19:56:16.720Z,54.81
2023-04-17T19:57:23.330Z,54.79
2023-04-17T19:58:31.718Z,54.88
2023-04-17T19:59:34.556Z,54.84
2023-04-17T20:00:37.558Z,54.70
2023-04-17T20:01:43.569Z,54.82
2023-04-17T20:02:45.572Z,54.89
2023-04-17T20:03:48.025Z,54.78
2023-04-17T20:04:51.746Z,54.81
2023-04-17T20:05:57.333Z,54.92
2023-04-17T20:07:01.059Z,54.88
2023-04-17T20:08:03.460Z,54.79
2023-04-17T20:09:14.818Z,54.89
2023-04-17T20:11:43.257Z,54.86
2023-04-17T20:12:48.978Z,54.88
2023-04-17T20:13:54.089Z,54.95
2023-04-17T20:14:57.248Z,55.00
2023-04-17T20:15:59.901Z,54.97
2023-04-17T20:17:02.507Z,54.96
2023-04-17T20:18:08.502Z,54.93
2023-04-17T20:19:15.804Z,55.04
2023-04-17T20:20:19.071Z,55.04
2023-04-17T20:21:21.618Z,54.93
2023-04-17T20:22:23.783Z,54.18
2023-04-17T20:23:27.013Z,54.42
2023-04-17T20:24:29.137Z,54.47
2023-04-17T20:25:31.816Z,54.54
2023-04-17T20:26:36.690Z,54.33
2023-04-17T20:27:38.732Z,54.15
2023-04-17T20:28:42.063Z,54.17
2023-04-17T20:29:44.843Z,54.33
2023-04-17T20:30:47.758Z,53.88
2023-04-17T20:31:50.051Z,53.73
2023-04-17T20:32:52.665Z,53.75
2023-04-17T20:33:58.713Z,53.55
2023-04-17T20:35:03.654Z,53.38
2023-04-17T20:36:07.042Z,52.94
2023-04-17T20:37:09.060Z,52.67
2023-04-17T20:38:11.197Z,52.52
2023-04-17T20:39:14.338Z,52.76
2023-04-17T20:40:18.617Z,52.82
2023-04-17T20:41:20.923Z,52.71
2023-04-17T20:42:23.458Z,52.84
2023-04-17T20:43:26.747Z,53.07
2023-04-17T20:44:31.211Z,53.21
2023-04-17T20:45:34.441Z,53.41
2023-04-17T20:46:42.811Z,53.64
2023-04-17T20:49:18.289Z,53.47
2023-04-17T20:50:26.720Z,53.52
2023-04-17T20:51:38.113Z,53.46
2023-04-17T20:52:52.309Z,53.53
2023-04-17T20:53:59.322Z,53.25
2023-04-17T20:55:02.678Z,53.28
2023-04-17T20:56:12.231Z,53.42
2023-04-17T20:57:15.692Z,52.98
2023-04-17T20:58:22.989Z,53.15
2023-04-17T20:59:27.365Z,52.98
2023-04-17T21:00:29.611Z,53.06
2023-04-17T21:01:31.853Z,52.64
2023-04-17T21:02:38.141Z,52.60
2023-04-17T21:03:42.085Z,52.64
2023-04-17T21:04:46.602Z,52.43
2023-04-17T21:05:48.875Z,52.42
2023-04-17T21:06:52.553Z,52.46
2023-04-17T21:07:55.216Z,52.36
2023-04-17T21:08:57.885Z,52.54
2023-04-17T21:10:07.585Z,52.71
2023-04-17T21:11:11.648Z,52.94
2023-04-17T21:12:14.186Z,53.22
2023-04-17T21:13:17.844Z,53.15
2023-04-17T21:14:22.960Z,53.18
2023-04-17T21:15:27.931Z,53.14
2023-04-17T21:16:34.211Z,53.45
2023-04-17T21:17:41.762Z,53.39
2023-04-17T21:18:45.459Z,53.59
2023-04-17T21:19:50.769Z,53.67
2023-04-17T21:20:52.962Z,53.71
2023-04-17T21:21:57.222Z,53.52
2023-04-17T21:23:16.898Z,53.79
2023-04-17T21:24:22.929Z,53.63
2023-04-17T21:25:25.581Z,53.28
2023-04-17T21:26:31.652Z,53.20
2023-04-17T21:27:33.955Z,53.40
2023-04-17T21:28:41.957Z,53.48
2023-04-17T21:29:46.749Z,53.24
2023-04-17T21:30:49.487Z,52.74
2023-04-17T21:31:51.677Z,52.76
2023-04-17T21:32:54.722Z,52.83
2023-04-17T21:34:03.221Z,52.60